sensor_id;sensor_type;location;lat;lon;timestamp;P1;durP1;ratioP1;P2;durP2;ratioP2
5077;SDS011;2557;51.390;7.494;2022-09-30T00:01:01;8.18;;;5.53;;
5077;SDS011;2557;51.390;7.494;2022-09-30T00:03:27;9.30;;;5.70;;
5077;SDS011;2557;51.390;7.494;2022-09-30T00:05:57;12.47;;;5.83;;
5077;SDS011;2557;51.390;7.494;2022-09-30T00:08:23;9.00;;;6.57;;
5077;SDS011;2557;51.390;7.494;2022-09-30T00:10:59;6.90;;;5.20;;
5077;SDS011;2557;51.390;7.494;2022-09-30T00:13:25;5.60;;;5.10;;
5077;SDS011;2557;51.390;7.494;2022-09-30T00:15:51;7.10;;;6.30;;
5077;SDS011;2557;51.390;7.494;2022-09-30T00:18:17;9.02;;;5.75;;
5077;SDS011;2557;51.390;7.494;2022-09-30T00:20:43;7.83;;;6.40;;
5077;SDS011;2557;51.390;7.494;2022-09-30T00:23:09;8.20;;;5.80;;
5077;SDS011;2557;51.390;7.494;2022-09-30T00:25:35;6.37;;;5.67;;
5077;SDS011;2557;51.390;7.494;2022-09-30T00:28:01;6.47;;;5.73;;
5077;SDS011;2557;51.390;7.494;2022-09-30T00:30:27;8.93;;;5.60;;
5077;SDS011;2557;51.390;7.494;2022-09-30T00:32:53;7.53;;;5.70;;
5077;SDS011;2557;51.390;7.494;2022-09-30T00:35:19;6.40;;;5.77;;
5077;SDS011;2557;51.390;7.494;2022-09-30T00:37:45;8.15;;;6.57;;
5077;SDS011;2557;51.390;7.494;2022-09-30T00:40:12;9.20;;;6.60;;
5077;SDS011;2557;51.390;7.494;2022-09-30T00:42:40;9.50;;;6.00;;
5077;SDS011;2557;51.390;7.494;2022-09-30T00:45:09;7.38;;;6.22;;
5077;SDS011;2557;51.390;7.494;2022-09-30T00:47:39;6.88;;;6.28;;
5077;SDS011;2557;51.390;7.494;2022-09-30T00:50:18;9.30;;;7.80;;
5077;SDS011;2557;51.390;7.494;2022-09-30T00:52:49;11.45;;;6.03;;
5077;SDS011;2557;51.390;7.494;2022-09-30T00:55:23;6.32;;;5.47;;
5077;SDS011;2557;51.390;7.494;2022-09-30T00:57:51;6.88;;;6.15;;
5077;SDS011;2557;51.390;7.494;2022-09-30T01:00:17;7.25;;;6.53;;
5077;SDS011;2557;51.390;7.494;2022-09-30T01:02:44;9.50;;;6.63;;
5077;SDS011;2557;51.390;7.494;2022-09-30T01:05:11;6.25;;;5.65;;
5077;SDS011;2557;51.390;7.494;2022-09-30T01:07:37;6.35;;;5.75;;
5077;SDS011;2557;51.390;7.494;2022-09-30T01:10:03;6.75;;;6.15;;
5077;SDS011;2557;51.390;7.494;2022-09-30T01:12:29;7.20;;;6.03;;
5077;SDS011;2557;51.390;7.494;2022-09-30T01:14:55;10.70;;;6.20;;
5077;SDS011;2557;51.390;7.494;2022-09-30T01:17:36;8.88;;;5.95;;
5077;SDS011;2557;51.390;7.494;2022-09-30T01:20:48;9.43;;;6.10;;
5077;SDS011;2557;51.390;7.494;2022-09-30T01:30:18;8.90;;;6.28;;
5077;SDS011;2557;51.390;7.494;2022-09-30T01:35:18;8.48;;;6.70;;
5077;SDS011;2557;51.390;7.494;2022-09-30T01:43:06;6.63;;;6.00;;
5077;SDS011;2557;51.390;7.494;2022-09-30T01:45:34;7.90;;;7.10;;
5077;SDS011;2557;51.390;7.494;2022-09-30T01:48:22;7.18;;;6.50;;
5077;SDS011;2557;51.390;7.494;2022-09-30T01:53:24;9.15;;;6.78;;
5077;SDS011;2557;51.390;7.494;2022-09-30T01:55:54;7.63;;;6.80;;
5077;SDS011;2557;51.390;7.494;2022-09-30T01:58:29;7.55;;;6.60;;
5077;SDS011;2557;51.390;7.494;2022-09-30T02:00:58;11.88;;;6.95;;
5077;SDS011;2557;51.390;7.494;2022-09-30T02:06:01;5.65;;;5.15;;
5077;SDS011;2557;51.390;7.494;2022-09-30T02:08:31;7.00;;;6.30;;
5077;SDS011;2557;51.390;7.494;2022-09-30T02:11:01;6.50;;;5.90;;
5077;SDS011;2557;51.390;7.494;2022-09-30T02:16:00;6.55;;;5.95;;
5077;SDS011;2557;51.390;7.494;2022-09-30T02:18:37;8.10;;;6.63;;
5077;SDS011;2557;51.390;7.494;2022-09-30T02:21:05;9.23;;;6.28;;
5077;SDS011;2557;51.390;7.494;2022-09-30T02:23:32;7.07;;;5.40;;
5077;SDS011;2557;51.390;7.494;2022-09-30T02:26:04;7.53;;;6.82;;
5077;SDS011;2557;51.390;7.494;2022-09-30T02:28:33;7.00;;;5.50;;
5077;SDS011;2557;51.390;7.494;2022-09-30T02:31:03;7.55;;;5.80;;
5077;SDS011;2557;51.390;7.494;2022-09-30T02:36:00;7.32;;;5.85;;
5077;SDS011;2557;51.390;7.494;2022-09-30T02:38:31;6.60;;;6.00;;
5077;SDS011;2557;51.390;7.494;2022-09-30T02:41:03;5.78;;;5.15;;
5077;SDS011;2557;51.390;7.494;2022-09-30T02:43:31;6.43;;;5.88;;
5077;SDS011;2557;51.390;7.494;2022-09-30T02:46:05;8.98;;;6.50;;
5077;SDS011;2557;51.390;7.494;2022-09-30T02:48:43;8.88;;;6.88;;
5077;SDS011;2557;51.390;7.494;2022-09-30T02:51:14;11.73;;;5.45;;
5077;SDS011;2557;51.390;7.494;2022-09-30T02:58:51;7.43;;;5.85;;
5077;SDS011;2557;51.390;7.494;2022-09-30T03:01:20;9.40;;;6.60;;
5077;SDS011;2557;51.390;7.494;2022-09-30T03:03:47;6.53;;;5.82;;
5077;SDS011;2557;51.390;7.494;2022-09-30T03:06:15;9.07;;;5.90;;
5077;SDS011;2557;51.390;7.494;2022-09-30T03:08:41;7.13;;;5.85;;
5077;SDS011;2557;51.390;7.494;2022-09-30T03:11:10;5.90;;;5.40;;
5077;SDS011;2557;51.390;7.494;2022-09-30T03:21:54;7.95;;;5.97;;
5077;SDS011;2557;51.390;7.494;2022-09-30T03:24:45;6.40;;;5.80;;
5077;SDS011;2557;51.390;7.494;2022-09-30T03:28:02;7.93;;;7.13;;
5077;SDS011;2557;51.390;7.494;2022-09-30T03:30:03;6.40;;;5.80;;
5077;SDS011;2557;51.390;7.494;2022-09-30T03:32:46;7.35;;;6.00;;
5077;SDS011;2557;51.390;7.494;2022-09-30T03:45:51;8.07;;;7.25;;
5077;SDS011;2557;51.390;7.494;2022-09-30T03:48:19;6.88;;;5.70;;
5077;SDS011;2557;51.390;7.494;2022-09-30T03:50:46;9.25;;;6.75;;
5077;SDS011;2557;51.390;7.494;2022-09-30T03:53:12;6.40;;;5.78;;
5077;SDS011;2557;51.390;7.494;2022-09-30T03:55:45;8.23;;;7.40;;
5077;SDS011;2557;51.390;7.494;2022-09-30T03:58:11;6.43;;;5.82;;
5077;SDS011;2557;51.390;7.494;2022-09-30T04:00:38;7.88;;;5.40;;
5077;SDS011;2557;51.390;7.494;2022-09-30T04:03:09;7.78;;;6.25;;
5077;SDS011;2557;51.390;7.494;2022-09-30T04:05:35;7.13;;;6.43;;
5077;SDS011;2557;51.390;7.494;2022-09-30T04:08:01;15.50;;;7.33;;
5077;SDS011;2557;51.390;7.494;2022-09-30T04:10:27;8.97;;;6.77;;
5077;SDS011;2557;51.390;7.494;2022-09-30T04:12:53;6.68;;;5.50;;
5077;SDS011;2557;51.390;7.494;2022-09-30T04:15:19;8.10;;;6.32;;
5077;SDS011;2557;51.390;7.494;2022-09-30T04:17:45;7.67;;;6.47;;
5077;SDS011;2557;51.390;7.494;2022-09-30T04:20:11;9.47;;;5.73;;
5077;SDS011;2557;51.390;7.494;2022-09-30T04:22:37;8.13;;;6.38;;
5077;SDS011;2557;51.390;7.494;2022-09-30T04:25:03;10.90;;;6.57;;
5077;SDS011;2557;51.390;7.494;2022-09-30T04:27:29;7.72;;;6.55;;
5077;SDS011;2557;51.390;7.494;2022-09-30T04:29:55;8.07;;;6.35;;
5077;SDS011;2557;51.390;7.494;2022-09-30T04:32:21;8.70;;;6.40;;
5077;SDS011;2557;51.390;7.494;2022-09-30T04:34:49;10.05;;;5.88;;
5077;SDS011;2557;51.390;7.494;2022-09-30T04:37:15;7.57;;;6.80;;
5077;SDS011;2557;51.390;7.494;2022-09-30T04:39:41;8.70;;;6.10;;
5077;SDS011;2557;51.390;7.494;2022-09-30T04:42:08;7.60;;;6.80;;
5077;SDS011;2557;51.390;7.494;2022-09-30T04:44:35;7.72;;;6.75;;
5077;SDS011;2557;51.390;7.494;2022-09-30T04:47:01;6.50;;;5.97;;
5077;SDS011;2557;51.390;7.494;2022-09-30T04:49:27;7.45;;;6.38;;
5077;SDS011;2557;51.390;7.494;2022-09-30T04:51:53;7.07;;;6.40;;
5077;SDS011;2557;51.390;7.494;2022-09-30T04:54:19;6.88;;;5.85;;
5077;SDS011;2557;51.390;7.494;2022-09-30T04:56:45;7.67;;;6.47;;
5077;SDS011;2557;51.390;7.494;2022-09-30T04:59:11;6.57;;;5.85;;
5077;SDS011;2557;51.390;7.494;2022-09-30T05:01:37;8.90;;;6.37;;
5077;SDS011;2557;51.390;7.494;2022-09-30T05:04:04;7.90;;;6.55;;
5077;SDS011;2557;51.390;7.494;2022-09-30T05:06:30;6.20;;;5.60;;
5077;SDS011;2557;51.390;7.494;2022-09-30T05:08:56;7.15;;;6.15;;
5077;SDS011;2557;51.390;7.494;2022-09-30T05:11:22;8.43;;;7.13;;
5077;SDS011;2557;51.390;7.494;2022-09-30T05:13:49;6.95;;;6.25;;
5077;SDS011;2557;51.390;7.494;2022-09-30T05:16:15;8.73;;;6.87;;
5077;SDS011;2557;51.390;7.494;2022-09-30T05:18:41;13.65;;;7.30;;
5077;SDS011;2557;51.390;7.494;2022-09-30T05:21:10;7.75;;;6.55;;
5077;SDS011;2557;51.390;7.494;2022-09-30T05:23:36;7.80;;;6.88;;
5077;SDS011;2557;51.390;7.494;2022-09-30T05:26:02;5.97;;;5.40;;
5077;SDS011;2557;51.390;7.494;2022-09-30T05:28:29;11.80;;;7.13;;
5077;SDS011;2557;51.390;7.494;2022-09-30T05:30:56;9.10;;;6.40;;
5077;SDS011;2557;51.390;7.494;2022-09-30T05:33:24;9.50;;;7.47;;
5077;SDS011;2557;51.390;7.494;2022-09-30T05:35:50;6.70;;;6.15;;
5077;SDS011;2557;51.390;7.494;2022-09-30T05:38:16;9.48;;;6.20;;
5077;SDS011;2557;51.390;7.494;2022-09-30T05:40:42;8.80;;;7.30;;
5077;SDS011;2557;51.390;7.494;2022-09-30T05:43:08;10.03;;;8.47;;
5077;SDS011;2557;51.390;7.494;2022-09-30T05:45:34;14.18;;;6.25;;
5077;SDS011;2557;51.390;7.494;2022-09-30T05:48:02;8.00;;;6.63;;
5077;SDS011;2557;51.390;7.494;2022-09-30T05:50:28;7.47;;;6.88;;
5077;SDS011;2557;51.390;7.494;2022-09-30T05:52:54;12.82;;;6.63;;
5077;SDS011;2557;51.390;7.494;2022-09-30T05:55:21;9.02;;;6.47;;
5077;SDS011;2557;51.390;7.494;2022-09-30T05:57:48;9.13;;;6.90;;
5077;SDS011;2557;51.390;7.494;2022-09-30T06:00:14;7.85;;;6.65;;
5077;SDS011;2557;51.390;7.494;2022-09-30T06:02:40;8.82;;;6.85;;
5077;SDS011;2557;51.390;7.494;2022-09-30T06:05:07;8.80;;;6.78;;
5077;SDS011;2557;51.390;7.494;2022-09-30T06:07:33;10.20;;;6.75;;
5077;SDS011;2557;51.390;7.494;2022-09-30T06:10:00;6.65;;;6.05;;
5077;SDS011;2557;51.390;7.494;2022-09-30T06:12:26;8.75;;;7.05;;
5077;SDS011;2557;51.390;7.494;2022-09-30T06:14:52;9.20;;;6.90;;
5077;SDS011;2557;51.390;7.494;2022-09-30T06:17:19;8.63;;;7.00;;
5077;SDS011;2557;51.390;7.494;2022-09-30T06:19:45;7.75;;;6.95;;
5077;SDS011;2557;51.390;7.494;2022-09-30T06:22:11;10.10;;;6.60;;
5077;SDS011;2557;51.390;7.494;2022-09-30T06:24:37;7.25;;;6.55;;
5077;SDS011;2557;51.390;7.494;2022-09-30T06:27:03;10.10;;;6.67;;
5077;SDS011;2557;51.390;7.494;2022-09-30T06:29:29;12.52;;;7.03;;
5077;SDS011;2557;51.390;7.494;2022-09-30T06:31:55;8.53;;;6.80;;
5077;SDS011;2557;51.390;7.494;2022-09-30T06:34:21;8.53;;;7.30;;
5077;SDS011;2557;51.390;7.494;2022-09-30T06:36:47;9.80;;;7.15;;
5077;SDS011;2557;51.390;7.494;2022-09-30T06:39:13;8.93;;;7.37;;
5077;SDS011;2557;51.390;7.494;2022-09-30T06:41:39;8.77;;;7.80;;
5077;SDS011;2557;51.390;7.494;2022-09-30T06:44:07;14.88;;;8.98;;
5077;SDS011;2557;51.390;7.494;2022-09-30T06:46:33;13.75;;;8.82;;
5077;SDS011;2557;51.390;7.494;2022-09-30T06:48:59;8.50;;;7.65;;
5077;SDS011;2557;51.390;7.494;2022-09-30T06:51:26;16.10;;;9.82;;
5077;SDS011;2557;51.390;7.494;2022-09-30T06:53:54;9.63;;;7.47;;
5077;SDS011;2557;51.390;7.494;2022-09-30T06:56:20;8.30;;;7.03;;
5077;SDS011;2557;51.390;7.494;2022-09-30T06:58:47;16.13;;;6.97;;
5077;SDS011;2557;51.390;7.494;2022-09-30T07:01:13;8.68;;;7.90;;
5077;SDS011;2557;51.390;7.494;2022-09-30T07:03:41;8.65;;;7.75;;
5077;SDS011;2557;51.390;7.494;2022-09-30T07:06:07;10.45;;;9.20;;
5077;SDS011;2557;51.390;7.494;2022-09-30T07:08:34;12.23;;;10.13;;
5077;SDS011;2557;51.390;7.494;2022-09-30T07:11:01;11.50;;;9.38;;
5077;SDS011;2557;51.390;7.494;2022-09-30T07:13:38;13.40;;;10.35;;
5077;SDS011;2557;51.390;7.494;2022-09-30T07:16:06;16.50;;;10.87;;
5077;SDS011;2557;51.390;7.494;2022-09-30T07:18:32;12.37;;;8.97;;
5077;SDS011;2557;51.390;7.494;2022-09-30T07:20:58;13.10;;;9.27;;
5077;SDS011;2557;51.390;7.494;2022-09-30T07:23:24;11.10;;;8.10;;
5077;SDS011;2557;51.390;7.494;2022-09-30T07:25:51;9.97;;;8.77;;
5077;SDS011;2557;51.390;7.494;2022-09-30T07:28:18;10.37;;;8.20;;
5077;SDS011;2557;51.390;7.494;2022-09-30T07:30:44;15.10;;;9.97;;
5077;SDS011;2557;51.390;7.494;2022-09-30T07:33:11;14.70;;;9.80;;
5077;SDS011;2557;51.390;7.494;2022-09-30T07:35:50;9.27;;;8.30;;
5077;SDS011;2557;51.390;7.494;2022-09-30T07:38:17;16.20;;;9.90;;
5077;SDS011;2557;51.390;7.494;2022-09-30T07:43:22;13.70;;;8.70;;
5077;SDS011;2557;51.390;7.494;2022-09-30T07:45:48;12.20;;;10.60;;
5077;SDS011;2557;51.390;7.494;2022-09-30T07:48:15;16.80;;;10.27;;
5077;SDS011;2557;51.390;7.494;2022-09-30T07:51:00;12.53;;;10.33;;
5077;SDS011;2557;51.390;7.494;2022-09-30T07:53:26;15.37;;;10.00;;
5077;SDS011;2557;51.390;7.494;2022-09-30T07:55:52;18.37;;;10.43;;
5077;SDS011;2557;51.390;7.494;2022-09-30T07:58:18;13.27;;;9.40;;
5077;SDS011;2557;51.390;7.494;2022-09-30T08:00:46;12.83;;;9.60;;
5077;SDS011;2557;51.390;7.494;2022-09-30T08:03:14;10.80;;;9.80;;
5077;SDS011;2557;51.390;7.494;2022-09-30T08:05:40;13.90;;;8.50;;
5077;SDS011;2557;51.390;7.494;2022-09-30T08:08:09;10.60;;;8.63;;
5077;SDS011;2557;51.390;7.494;2022-09-30T08:10:35;13.30;;;10.63;;
5077;SDS011;2557;51.390;7.494;2022-09-30T08:13:01;20.83;;;10.23;;
5077;SDS011;2557;51.390;7.494;2022-09-30T08:15:27;12.47;;;9.30;;
5077;SDS011;2557;51.390;7.494;2022-09-30T08:17:53;14.77;;;10.03;;
5077;SDS011;2557;51.390;7.494;2022-09-30T08:20:19;10.33;;;8.87;;
5077;SDS011;2557;51.390;7.494;2022-09-30T08:22:45;13.27;;;10.10;;
5077;SDS011;2557;51.390;7.494;2022-09-30T08:25:11;12.13;;;8.60;;
5077;SDS011;2557;51.390;7.494;2022-09-30T08:27:37;13.17;;;9.50;;
5077;SDS011;2557;51.390;7.494;2022-09-30T08:30:04;9.53;;;8.20;;
5077;SDS011;2557;51.390;7.494;2022-09-30T08:32:30;13.53;;;9.23;;
5077;SDS011;2557;51.390;7.494;2022-09-30T08:34:56;14.67;;;10.10;;
5077;SDS011;2557;51.390;7.494;2022-09-30T08:37:22;14.73;;;10.37;;
5077;SDS011;2557;51.390;7.494;2022-09-30T08:39:48;11.50;;;9.60;;
5077;SDS011;2557;51.390;7.494;2022-09-30T08:44:53;10.80;;;9.27;;
5077;SDS011;2557;51.390;7.494;2022-09-30T08:50:01;11.50;;;10.27;;
5077;SDS011;2557;51.390;7.494;2022-09-30T08:52:32;15.77;;;9.60;;
5077;SDS011;2557;51.390;7.494;2022-09-30T08:54:59;16.17;;;10.23;;
5077;SDS011;2557;51.390;7.494;2022-09-30T08:57:27;9.30;;;8.17;;
5077;SDS011;2557;51.390;7.494;2022-09-30T08:59:59;11.33;;;8.30;;
5077;SDS011;2557;51.390;7.494;2022-09-30T09:02:42;12.20;;;7.80;;
5077;SDS011;2557;51.390;7.494;2022-09-30T09:08:00;12.80;;;8.33;;
5077;SDS011;2557;51.390;7.494;2022-09-30T09:15:34;8.60;;;7.70;;
5077;SDS011;2557;51.390;7.494;2022-09-30T09:18:07;8.10;;;6.73;;
5077;SDS011;2557;51.390;7.494;2022-09-30T09:20:37;13.17;;;8.57;;
5077;SDS011;2557;51.390;7.494;2022-09-30T09:23:07;10.10;;;9.00;;
5077;SDS011;2557;51.390;7.494;2022-09-30T09:25:34;11.90;;;7.10;;
5077;SDS011;2557;51.390;7.494;2022-09-30T09:28:00;11.80;;;7.30;;
5077;SDS011;2557;51.390;7.494;2022-09-30T09:30:39;11.97;;;7.20;;
5077;SDS011;2557;51.390;7.494;2022-09-30T09:33:17;9.00;;;6.97;;
5077;SDS011;2557;51.390;7.494;2022-09-30T09:36:06;7.03;;;6.33;;
5077;SDS011;2557;51.390;7.494;2022-09-30T09:48:47;6.60;;;4.70;;
5077;SDS011;2557;51.390;7.494;2022-09-30T09:51:18;4.53;;;4.13;;
5077;SDS011;2557;51.390;7.494;2022-09-30T09:53:48;6.07;;;4.00;;
5077;SDS011;2557;51.390;7.494;2022-09-30T09:56:15;7.23;;;4.67;;
5077;SDS011;2557;51.390;7.494;2022-09-30T10:01:30;7.73;;;4.10;;
5077;SDS011;2557;51.390;7.494;2022-09-30T10:04:06;4.37;;;4.07;;
5077;SDS011;2557;51.390;7.494;2022-09-30T10:06:42;5.20;;;4.30;;
5077;SDS011;2557;51.390;7.494;2022-09-30T10:09:20;6.50;;;3.50;;
5077;SDS011;2557;51.390;7.494;2022-09-30T10:11:46;4.60;;;4.30;;
5077;SDS011;2557;51.390;7.494;2022-09-30T10:14:15;3.43;;;3.03;;
5077;SDS011;2557;51.390;7.494;2022-09-30T10:16:43;4.13;;;3.73;;
5077;SDS011;2557;51.390;7.494;2022-09-30T10:19:22;5.13;;;4.63;;
5077;SDS011;2557;51.390;7.494;2022-09-30T10:21:50;4.70;;;3.03;;
5077;SDS011;2557;51.390;7.494;2022-09-30T10:24:28;4.50;;;4.10;;
5077;SDS011;2557;51.390;7.494;2022-09-30T10:26:54;4.00;;;3.70;;
5077;SDS011;2557;51.390;7.494;2022-09-30T10:29:25;4.50;;;4.10;;
5077;SDS011;2557;51.390;7.494;2022-09-30T10:31:51;4.70;;;4.30;;
5077;SDS011;2557;51.390;7.494;2022-09-30T10:36:52;4.77;;;4.30;;
5077;SDS011;2557;51.390;7.494;2022-09-30T10:39:23;4.20;;;3.80;;
5077;SDS011;2557;51.390;7.494;2022-09-30T10:42:11;5.10;;;4.17;;
5077;SDS011;2557;51.390;7.494;2022-09-30T10:47:07;4.57;;;4.17;;
5077;SDS011;2557;51.390;7.494;2022-09-30T10:49:41;4.03;;;3.33;;
5077;SDS011;2557;51.390;7.494;2022-09-30T10:52:26;3.87;;;3.57;;
5077;SDS011;2557;51.390;7.494;2022-09-30T10:54:54;5.00;;;4.43;;
5077;SDS011;2557;51.390;7.494;2022-09-30T10:57:33;4.47;;;4.10;;
5077;SDS011;2557;51.390;7.494;2022-09-30T11:00:07;4.97;;;4.23;;
5077;SDS011;2557;51.390;7.494;2022-09-30T11:07:42;5.17;;;4.07;;
5077;SDS011;2557;51.390;7.494;2022-09-30T11:12:53;5.17;;;3.53;;
5077;SDS011;2557;51.390;7.494;2022-09-30T11:15:23;4.30;;;4.00;;
5077;SDS011;2557;51.390;7.494;2022-09-30T11:17:55;3.30;;;2.90;;
5077;SDS011;2557;51.390;7.494;2022-09-30T11:20:38;4.50;;;3.10;;
5077;SDS011;2557;51.390;7.494;2022-09-30T11:25:53;3.00;;;2.63;;
5077;SDS011;2557;51.390;7.494;2022-09-30T11:28:37;5.80;;;3.00;;
5077;SDS011;2557;51.390;7.494;2022-09-30T11:31:11;3.23;;;2.83;;
5077;SDS011;2557;51.390;7.494;2022-09-30T11:33:42;6.30;;;3.50;;
5077;SDS011;2557;51.390;7.494;2022-09-30T11:36:18;5.43;;;2.47;;
5077;SDS011;2557;51.390;7.494;2022-09-30T11:41:28;4.70;;;3.20;;
5077;SDS011;2557;51.390;7.494;2022-09-30T11:44:00;5.90;;;1.80;;
5077;SDS011;2557;51.390;7.494;2022-09-30T11:49:19;3.47;;;3.20;;
5077;SDS011;2557;51.390;7.494;2022-09-30T11:51:59;7.23;;;3.63;;
5077;SDS011;2557;51.390;7.494;2022-09-30T11:54:32;4.40;;;3.57;;
5077;SDS011;2557;51.390;7.494;2022-09-30T11:57:07;5.07;;;3.23;;
5077;SDS011;2557;51.390;7.494;2022-09-30T11:59:43;4.20;;;3.07;;
5077;SDS011;2557;51.390;7.494;2022-09-30T12:02:14;5.07;;;3.47;;
5077;SDS011;2557;51.390;7.494;2022-09-30T12:04:43;3.47;;;3.13;;
5077;SDS011;2557;51.390;7.494;2022-09-30T12:09:40;4.60;;;3.30;;
5077;SDS011;2557;51.390;7.494;2022-09-30T12:12:12;3.57;;;3.20;;
5077;SDS011;2557;51.390;7.494;2022-09-30T12:14:42;4.37;;;2.50;;
5077;SDS011;2557;51.390;7.494;2022-09-30T12:18:12;3.53;;;2.90;;
5077;SDS011;2557;51.390;7.494;2022-09-30T12:20:06;3.57;;;3.17;;
5077;SDS011;2557;51.390;7.494;2022-09-30T12:22:37;3.30;;;3.00;;
5077;SDS011;2557;51.390;7.494;2022-09-30T12:25:17;3.00;;;2.80;;
5077;SDS011;2557;51.390;7.494;2022-09-30T12:27:45;5.57;;;2.87;;
5077;SDS011;2557;51.390;7.494;2022-09-30T12:30:13;3.23;;;2.37;;
5077;SDS011;2557;51.390;7.494;2022-09-30T12:32:53;3.43;;;2.90;;
5077;SDS011;2557;51.390;7.494;2022-09-30T12:35:28;3.40;;;2.90;;
5077;SDS011;2557;51.390;7.494;2022-09-30T12:40:42;3.30;;;3.10;;
5077;SDS011;2557;51.390;7.494;2022-09-30T12:43:25;4.53;;;3.83;;
5077;SDS011;2557;51.390;7.494;2022-09-30T12:48:40;5.17;;;3.87;;
5077;SDS011;2557;51.390;7.494;2022-09-30T12:51:08;4.20;;;3.80;;
5077;SDS011;2557;51.390;7.494;2022-09-30T12:53:36;4.10;;;3.63;;
5077;SDS011;2557;51.390;7.494;2022-09-30T12:58:30;3.67;;;2.70;;
5077;SDS011;2557;51.390;7.494;2022-09-30T13:01:05;4.00;;;3.70;;
5077;SDS011;2557;51.390;7.494;2022-09-30T13:03:48;4.37;;;3.90;;
5077;SDS011;2557;51.390;7.494;2022-09-30T13:06:15;3.93;;;3.63;;
5077;SDS011;2557;51.390;7.494;2022-09-30T13:08:43;4.17;;;3.87;;
5077;SDS011;2557;51.390;7.494;2022-09-30T13:11:20;6.33;;;3.50;;
5077;SDS011;2557;51.390;7.494;2022-09-30T13:13:56;4.23;;;3.30;;
5077;SDS011;2557;51.390;7.494;2022-09-30T13:19:18;3.53;;;2.80;;
5077;SDS011;2557;51.390;7.494;2022-09-30T13:21:45;3.40;;;2.90;;
5077;SDS011;2557;51.390;7.494;2022-09-30T13:24:11;2.70;;;2.60;;
5077;SDS011;2557;51.390;7.494;2022-09-30T13:26:43;3.30;;;3.00;;
5077;SDS011;2557;51.390;7.494;2022-09-30T13:34:12;6.50;;;3.20;;
5077;SDS011;2557;51.390;7.494;2022-09-30T13:39:18;2.50;;;2.33;;
5077;SDS011;2557;51.390;7.494;2022-09-30T13:41:47;2.53;;;2.33;;
5077;SDS011;2557;51.390;7.494;2022-09-30T13:45:00;3.33;;;2.70;;
5077;SDS011;2557;51.390;7.494;2022-09-30T13:47:11;3.10;;;2.90;;
5077;SDS011;2557;51.390;7.494;2022-09-30T13:49:41;3.03;;;2.73;;
5077;SDS011;2557;51.390;7.494;2022-09-30T13:52:14;3.00;;;2.80;;
5077;SDS011;2557;51.390;7.494;2022-09-30T13:54:42;3.63;;;2.43;;
5077;SDS011;2557;51.390;7.494;2022-09-30T13:57:14;2.60;;;2.40;;
5077;SDS011;2557;51.390;7.494;2022-09-30T13:59:47;3.53;;;3.23;;
5077;SDS011;2557;51.390;7.494;2022-09-30T14:04:48;2.70;;;2.50;;
5077;SDS011;2557;51.390;7.494;2022-09-30T14:10:12;2.60;;;2.40;;
5077;SDS011;2557;51.390;7.494;2022-09-30T14:15:22;2.90;;;2.40;;
5077;SDS011;2557;51.390;7.494;2022-09-30T14:22:54;4.47;;;2.73;;
5077;SDS011;2557;51.390;7.494;2022-09-30T14:25:20;5.27;;;2.13;;
5077;SDS011;2557;51.390;7.494;2022-09-30T14:28:03;2.40;;;2.20;;
5077;SDS011;2557;51.390;7.494;2022-09-30T14:30:36;4.73;;;2.70;;
5077;SDS011;2557;51.390;7.494;2022-09-30T14:33:11;2.57;;;2.37;;
5077;SDS011;2557;51.390;7.494;2022-09-30T14:35:40;2.80;;;2.60;;
5077;SDS011;2557;51.390;7.494;2022-09-30T14:38:08;2.17;;;1.97;;
5077;SDS011;2557;51.390;7.494;2022-09-30T14:40:39;3.70;;;3.40;;
5077;SDS011;2557;51.390;7.494;2022-09-30T14:43:06;5.80;;;3.00;;
5077;SDS011;2557;51.390;7.494;2022-09-30T14:45:37;3.00;;;2.80;;
5077;SDS011;2557;51.390;7.494;2022-09-30T14:48:07;2.87;;;2.67;;
5077;SDS011;2557;51.390;7.494;2022-09-30T14:50:35;3.10;;;2.80;;
5077;SDS011;2557;51.390;7.494;2022-09-30T14:53:01;4.20;;;2.97;;
5077;SDS011;2557;51.390;7.494;2022-09-30T14:55:30;4.03;;;3.63;;
5077;SDS011;2557;51.390;7.494;2022-09-30T14:58:13;3.77;;;3.43;;
5077;SDS011;2557;51.390;7.494;2022-09-30T15:00:42;3.73;;;3.07;;
5077;SDS011;2557;51.390;7.494;2022-09-30T15:03:09;4.23;;;3.23;;
5077;SDS011;2557;51.390;7.494;2022-09-30T15:05:36;2.80;;;2.40;;
5077;SDS011;2557;51.390;7.494;2022-09-30T15:08:06;5.00;;;2.77;;
5077;SDS011;2557;51.390;7.494;2022-09-30T15:10:34;2.93;;;2.73;;
5077;SDS011;2557;51.390;7.494;2022-09-30T15:13:00;3.77;;;2.80;;
5077;SDS011;2557;51.390;7.494;2022-09-30T15:17:53;4.10;;;2.60;;
5077;SDS011;2557;51.390;7.494;2022-09-30T15:22:50;2.57;;;2.37;;
5077;SDS011;2557;51.390;7.494;2022-09-30T15:25:17;2.90;;;2.20;;
5077;SDS011;2557;51.390;7.494;2022-09-30T15:27:44;3.17;;;2.43;;
5077;SDS011;2557;51.390;7.494;2022-09-30T15:32:39;2.90;;;2.60;;
5077;SDS011;2557;51.390;7.494;2022-09-30T15:35:06;3.43;;;2.80;;
5077;SDS011;2557;51.390;7.494;2022-09-30T15:37:32;14.80;;;2.33;;
5077;SDS011;2557;51.390;7.494;2022-09-30T15:39:59;4.73;;;2.17;;
5077;SDS011;2557;51.390;7.494;2022-09-30T15:42:55;5.20;;;2.13;;
5077;SDS011;2557;51.390;7.494;2022-09-30T15:47:56;3.40;;;3.10;;
5077;SDS011;2557;51.390;7.494;2022-09-30T15:50:37;5.40;;;1.80;;
5077;SDS011;2557;51.390;7.494;2022-09-30T15:53:04;3.43;;;1.73;;
5077;SDS011;2557;51.390;7.494;2022-09-30T15:55:38;2.60;;;1.60;;
5077;SDS011;2557;51.390;7.494;2022-09-30T16:00:51;3.27;;;2.13;;
5077;SDS011;2557;51.390;7.494;2022-09-30T16:03:28;4.80;;;2.30;;
5077;SDS011;2557;51.390;7.494;2022-09-30T16:06:04;4.60;;;2.23;;
5077;SDS011;2557;51.390;7.494;2022-09-30T16:08:30;2.50;;;2.30;;
5077;SDS011;2557;51.390;7.494;2022-09-30T16:11:00;2.87;;;1.80;;
5077;SDS011;2557;51.390;7.494;2022-09-30T16:13:28;3.73;;;2.30;;
5077;SDS011;2557;51.390;7.494;2022-09-30T16:15:55;2.43;;;2.23;;
5077;SDS011;2557;51.390;7.494;2022-09-30T16:18:26;2.80;;;1.90;;
5077;SDS011;2557;51.390;7.494;2022-09-30T16:20:56;2.40;;;2.20;;
5077;SDS011;2557;51.390;7.494;2022-09-30T16:23:56;2.27;;;2.07;;
5077;SDS011;2557;51.390;7.494;2022-09-30T16:28:41;3.10;;;2.20;;
5077;SDS011;2557;51.390;7.494;2022-09-30T16:31:07;2.27;;;1.83;;
5077;SDS011;2557;51.390;7.494;2022-09-30T16:33:34;3.53;;;2.43;;
5077;SDS011;2557;51.390;7.494;2022-09-30T16:36:03;3.93;;;2.73;;
5077;SDS011;2557;51.390;7.494;2022-09-30T16:38:29;2.03;;;1.70;;
5077;SDS011;2557;51.390;7.494;2022-09-30T16:40:55;2.80;;;1.97;;
5077;SDS011;2557;51.390;7.494;2022-09-30T16:43:22;6.80;;;2.07;;
5077;SDS011;2557;51.390;7.494;2022-09-30T16:45:51;8.23;;;2.30;;
5077;SDS011;2557;51.390;7.494;2022-09-30T16:48:17;3.40;;;1.87;;
5077;SDS011;2557;51.390;7.494;2022-09-30T16:53:20;2.80;;;2.33;;
5077;SDS011;2557;51.390;7.494;2022-09-30T16:55:46;5.17;;;2.43;;
5077;SDS011;2557;51.390;7.494;2022-09-30T16:58:12;3.63;;;2.40;;
5077;SDS011;2557;51.390;7.494;2022-09-30T17:00:42;3.47;;;2.10;;
5077;SDS011;2557;51.390;7.494;2022-09-30T17:03:11;4.53;;;2.20;;
5077;SDS011;2557;51.390;7.494;2022-09-30T17:05:41;2.33;;;2.10;;
5077;SDS011;2557;51.390;7.494;2022-09-30T17:08:08;8.27;;;2.50;;
5077;SDS011;2557;51.390;7.494;2022-09-30T17:10:35;3.90;;;3.00;;
5077;SDS011;2557;51.390;7.494;2022-09-30T17:13:01;4.27;;;2.30;;
5077;SDS011;2557;51.390;7.494;2022-09-30T17:15:28;2.50;;;1.97;;
5077;SDS011;2557;51.390;7.494;2022-09-30T17:17:54;4.23;;;1.73;;
5077;SDS011;2557;51.390;7.494;2022-09-30T17:20:20;2.17;;;2.07;;
5077;SDS011;2557;51.390;7.494;2022-09-30T17:22:47;2.70;;;2.30;;
5077;SDS011;2557;51.390;7.494;2022-09-30T17:25:13;2.70;;;2.50;;
5077;SDS011;2557;51.390;7.494;2022-09-30T17:27:39;4.67;;;2.40;;
5077;SDS011;2557;51.390;7.494;2022-09-30T17:30:05;2.20;;;2.00;;
5077;SDS011;2557;51.390;7.494;2022-09-30T17:32:35;2.30;;;2.10;;
5077;SDS011;2557;51.390;7.494;2022-09-30T17:35:01;5.83;;;2.70;;
5077;SDS011;2557;51.390;7.494;2022-09-30T17:37:30;5.90;;;2.17;;
5077;SDS011;2557;51.390;7.494;2022-09-30T17:39:56;5.47;;;2.83;;
5077;SDS011;2557;51.390;7.494;2022-09-30T17:42:22;2.90;;;2.07;;
5077;SDS011;2557;51.390;7.494;2022-09-30T17:45:07;3.63;;;2.23;;
5077;SDS011;2557;51.390;7.494;2022-09-30T17:47:33;4.27;;;2.33;;
5077;SDS011;2557;51.390;7.494;2022-09-30T17:50:01;3.93;;;2.03;;
5077;SDS011;2557;51.390;7.494;2022-09-30T17:52:27;4.30;;;2.97;;
5077;SDS011;2557;51.390;7.494;2022-09-30T17:54:58;3.43;;;2.90;;
5077;SDS011;2557;51.390;7.494;2022-09-30T17:57:24;3.27;;;2.93;;